createdAt,value
2022-08-17T00:00:33.295Z,27.57
2022-08-17T00:05:42.146Z,20.17
2022-08-17T00:10:45.926Z,22.83
2022-08-17T00:15:47.961Z,20.85
2022-08-17T00:20:50.178Z,24.83
2022-08-17T00:25:53.524Z,19.80
2022-08-17T00:30:55.602Z,26.88
2022-08-17T00:35:58.653Z,46.95
2022-08-17T00:46:11.226Z,28.35
2022-08-17T00:51:18.439Z,25.48
2022-08-17T00:56:27.610Z,23.65
2022-08-17T01:01:30.369Z,24.38
2022-08-17T01:06:33.252Z,24.88
2022-08-17T01:21:51.413Z,25.50
2022-08-17T01:26:53.807Z,32.45
2022-08-17T01:32:00.981Z,26.95
2022-08-17T01:37:03.369Z,27.50
2022-08-17T01:42:08.968Z,28.67
2022-08-17T01:47:12.993Z,25.05
2022-08-17T01:52:15.961Z,25.85
2022-08-17T01:57:18.309Z,29.70
2022-08-17T02:02:30.327Z,27.07
2022-08-17T02:07:33.233Z,24.38
2022-08-17T02:12:55.720Z,24.92
2022-08-17T02:17:58.076Z,24.50
2022-08-17T02:23:01.544Z,23.03
2022-08-17T02:28:04.623Z,26.65
2022-08-17T02:33:09.364Z,20.80
2022-08-17T02:38:11.740Z,22.65
2022-08-17T02:43:13.813Z,26.83
2022-08-17T02:48:16.128Z,32.63
2022-08-17T02:53:35.892Z,27.92
2022-08-17T02:58:38.469Z,26.40
2022-08-17T03:03:40.790Z,25.67
2022-08-17T03:08:45.094Z,26.20
2022-08-17T03:13:47.112Z,26.95
2022-08-17T03:18:49.499Z,36.88
2022-08-17T03:23:54.583Z,30.60
2022-08-17T03:28:56.801Z,29.63
2022-08-17T03:33:58.814Z,26.00
2022-08-17T03:39:00.932Z,25.33
2022-08-17T03:44:03.549Z,30.88
2022-08-17T03:49:26.222Z,28.55
2022-08-17T03:54:46.868Z,29.58
2022-08-17T03:59:49.678Z,25.27
2022-08-17T04:04:52.539Z,21.38
2022-08-17T04:09:55.349Z,24.55
2022-08-17T04:14:57.892Z,21.95
2022-08-17T04:19:59.871Z,28.30
2022-08-17T04:25:22.357Z,20.00
2022-08-17T04:30:25.085Z,23.33
2022-08-17T04:35:30.500Z,24.33
2022-08-17T04:40:53.587Z,23.25
2022-08-17T04:45:59.496Z,23.75
2022-08-17T04:51:01.987Z,20.38
2022-08-17T04:56:04.473Z,19.23
2022-08-17T05:01:07.115Z,17.43
2022-08-17T05:06:09.430Z,22.13
2022-08-17T05:11:11.522Z,27.27
2022-08-17T05:16:13.576Z,68.22
2022-08-17T05:21:16.337Z,19.15
2022-08-17T05:26:26.124Z,21.58
2022-08-17T05:31:29.973Z,22.45
2022-08-17T05:36:43.515Z,16.25
2022-08-17T05:41:47.949Z,23.50
2022-08-17T05:46:52.207Z,21.42
2022-08-17T05:52:13.066Z,16.65
2022-08-17T05:57:53.645Z,20.73
2022-08-17T06:03:14.435Z,20.40
2022-08-17T06:08:39.782Z,22.90
2022-08-17T06:13:56.771Z,25.00
2022-08-17T06:19:02.587Z,22.08
2022-08-17T06:24:23.906Z,18.80
2022-08-17T06:29:39.109Z,20.67
2022-08-17T06:34:43.731Z,18.48
2022-08-17T06:39:48.941Z,18.85
2022-08-17T06:45:07.722Z,17.50
2022-08-17T06:50:23.192Z,20.70
2022-08-17T06:55:58.894Z,18.38
2022-08-17T07:01:06.721Z,16.33
2022-08-17T07:06:15.453Z,15.90
2022-08-17T07:11:46.637Z,15.48
2022-08-17T07:16:54.366Z,18.60
2022-08-17T07:22:05.592Z,11.90
2022-08-17T07:27:13.376Z,18.70
2022-08-17T07:32:19.649Z,17.50
2022-08-17T07:37:21.550Z,10.82
2022-08-17T07:42:23.670Z,16.67
2022-08-17T07:47:44.112Z,14.27
2022-08-17T07:52:47.880Z,13.18
2022-08-17T07:57:57.949Z,16.40
2022-08-17T08:03:04.889Z,12.75
2022-08-17T08:08:28.186Z,10.85
2022-08-17T08:13:30.822Z,13.98
2022-08-17T08:18:54.787Z,11.15
2022-08-17T08:24:13.373Z,9.55
2022-08-17T08:29:41.357Z,13.00
2022-08-17T08:35:30.991Z,13.70
2022-08-17T08:40:51.924Z,15.43
2022-08-17T08:46:03.147Z,18.13
2022-08-17T08:51:28.013Z,11.05
2022-08-17T08:57:21.588Z,13.35
2022-08-17T09:02:37.154Z,16.10
2022-08-17T09:07:49.631Z,13.02
2022-08-17T09:13:10.287Z,14.77
2022-08-17T09:19:01.796Z,13.02
2022-08-17T09:24:12.714Z,14.45
2022-08-17T09:29:16.824Z,12.63
2022-08-17T09:34:29.590Z,13.60
2022-08-17T09:39:42.736Z,16.83
2022-08-17T09:44:55.326Z,10.18
2022-08-17T09:50:02.413Z,20.42
2022-08-17T09:55:05.578Z,16.17
2022-08-17T10:00:30.542Z,15.15
2022-08-17T10:05:56.623Z,15.68
2022-08-17T10:11:17.045Z,12.10
2022-08-17T10:16:29.202Z,10.57
2022-08-17T10:22:00.686Z,16.35
2022-08-17T10:27:11.168Z,8.20
2022-08-17T10:32:28.038Z,13.68
2022-08-17T10:37:43.507Z,16.85
2022-08-17T10:42:53.950Z,19.65
2022-08-17T10:48:06.331Z,12.25
2022-08-17T10:53:08.885Z,10.52
2022-08-17T10:58:21.883Z,21.48
2022-08-17T11:03:25.515Z,27.65
2022-08-17T11:08:57.491Z,12.68
2022-08-17T11:14:17.007Z,12.35
2022-08-17T11:19:24.972Z,17.60
2022-08-17T11:25:19.719Z,13.48
2022-08-17T11:30:40.376Z,12.73
2022-08-17T11:35:49.983Z,14.70
2022-08-17T11:41:13.608Z,17.33
2022-08-17T11:46:52.683Z,11.68
2022-08-17T11:51:54.666Z,14.43
2022-08-17T11:56:59.032Z,15.80
2022-08-17T12:02:06.733Z,15.75
2022-08-17T12:07:30.161Z,10.23
2022-08-17T12:12:35.958Z,12.80
2022-08-17T12:17:40.691Z,14.57
2022-08-17T12:23:16.063Z,14.68
2022-08-17T12:28:30.777Z,15.30
2022-08-17T12:33:34.122Z,13.55
2022-08-17T12:38:38.426Z,9.75
2022-08-17T12:43:40.465Z,14.00
2022-08-17T12:48:58.952Z,13.38
2022-08-17T12:54:02.162Z,11.40
2022-08-17T12:59:04.199Z,12.32
2022-08-17T13:04:07.235Z,14.50
2022-08-17T13:09:18.021Z,11.35
2022-08-17T13:14:20.282Z,17.00
2022-08-17T13:19:32.974Z,21.27
2022-08-17T13:24:53.203Z,10.93
2022-08-17T13:29:59.725Z,27.65
2022-08-17T13:35:12.481Z,19.92
2022-08-17T13:40:18.994Z,19.85
2022-08-17T13:50:58.817Z,18.75
2022-08-17T13:56:38.541Z,16.67
2022-08-17T14:01:52.576Z,16.92
2022-08-17T14:07:12.097Z,12.00
2022-08-17T14:12:16.658Z,14.77
2022-08-17T14:17:19.598Z,16.38
2022-08-17T14:22:32.503Z,14.88
2022-08-17T14:27:47.082Z,13.52
2022-08-17T14:32:57.551Z,12.50
2022-08-17T14:38:00.025Z,18.33
2022-08-17T14:48:07.896Z,14.00
2022-08-17T14:53:12.660Z,20.13
2022-08-17T14:58:14.785Z,16.77
2022-08-17T15:03:18.393Z,10.57
2022-08-17T15:08:20.463Z,18.35
2022-08-17T15:13:25.058Z,19.27
2022-08-17T15:18:27.468Z,16.52
2022-08-17T15:23:29.661Z,16.45
2022-08-17T15:28:32.214Z,18.40
2022-08-17T15:33:34.462Z,12.43
2022-08-17T15:38:39.422Z,19.58
2022-08-17T15:43:43.650Z,12.43
2022-08-17T15:48:53.116Z,12.52
2022-08-17T15:54:04.503Z,11.38
2022-08-17T15:59:21.526Z,21.27
2022-08-17T16:04:29.969Z,17.65
2022-08-17T16:09:33.247Z,18.95
2022-08-17T16:14:36.489Z,24.77
2022-08-17T16:19:40.282Z,17.13
2022-08-17T16:24:56.843Z,16.02
2022-08-17T16:30:00.828Z,20.17
2022-08-17T16:35:08.901Z,20.60
2022-08-17T16:40:11.964Z,22.90
2022-08-17T16:45:18.538Z,20.27
2022-08-17T16:50:23.806Z,19.83
2022-08-17T16:55:26.869Z,18.40
2022-08-17T17:00:29.959Z,16.45
2022-08-17T17:05:34.974Z,22.95
2022-08-17T17:10:46.213Z,18.13
2022-08-17T17:15:55.065Z,24.88
2022-08-17T17:20:57.991Z,15.48
2022-08-17T17:26:12.059Z,18.40
2022-08-17T17:31:17.572Z,20.40
2022-08-17T17:36:40.192Z,16.98
2022-08-17T17:41:47.464Z,20.45
2022-08-17T17:46:55.181Z,18.95
2022-08-17T17:52:13.381Z,18.95
2022-08-17T17:57:24.670Z,17.77
2022-08-17T18:03:01.443Z,19.58
2022-08-17T18:08:35.697Z,49.13
2022-08-17T18:13:46.926Z,21.85
2022-08-17T18:18:52.295Z,21.53
2022-08-17T18:23:58.147Z,22.17
2022-08-17T18:29:32.071Z,23.13
2022-08-17T18:34:47.379Z,25.25
2022-08-17T18:39:50.239Z,27.77
2022-08-17T18:44:55.275Z,25.43
2022-08-17T18:50:19.061Z,25.70
2022-08-17T18:55:23.769Z,30.45
2022-08-17T19:00:39.542Z,35.40
2022-08-17T19:05:52.032Z,27.85
2022-08-17T19:11:22.026Z,26.45
2022-08-17T19:16:39.091Z,24.20
2022-08-17T19:22:16.995Z,23.40
2022-08-17T19:27:46.333Z,23.10
2022-08-17T19:32:48.790Z,25.17
2022-08-17T19:38:13.511Z,22.17
2022-08-17T19:44:07.168Z,24.27
2022-08-17T19:54:55.381Z,26.77
2022-08-17T20:00:01.848Z,31.30
2022-08-17T20:05:16.827Z,27.48
2022-08-17T20:10:26.762Z,28.60
2022-08-17T20:15:31.627Z,26.30
2022-08-17T20:20:42.022Z,20.35
2022-08-17T20:26:10.079Z,23.27
2022-08-17T20:32:05.497Z,21.48
2022-08-17T20:37:13.638Z,26.95
2022-08-17T20:42:15.667Z,26.58
2022-08-17T20:47:27.127Z,30.88
2022-08-17T20:52:52.471Z,28.10
2022-08-17T20:57:54.548Z,24.45
2022-08-17T21:03:25.316Z,26.73
2022-08-17T21:08:59.123Z,26.85
2022-08-17T21:14:10.422Z,24.15
2022-08-17T21:20:09.773Z,28.08
2022-08-17T21:25:21.198Z,30.48
2022-08-17T21:30:29.406Z,24.48
2022-08-17T21:35:47.911Z,37.30
2022-08-17T21:40:52.802Z,26.45
2022-08-17T21:46:23.531Z,29.42
2022-08-17T21:51:28.739Z,29.63
2022-08-17T21:56:33.717Z,29.60
2022-08-17T22:01:38.550Z,28.88
2022-08-17T22:06:57.335Z,30.23
2022-08-17T22:12:13.731Z,33.08
2022-08-17T22:17:20.478Z,26.80
2022-08-17T22:22:31.158Z,24.17
2022-08-17T22:27:50.865Z,31.02
2022-08-17T22:32:53.636Z,32.03
2022-08-17T22:37:56.746Z,33.42
2022-08-17T22:43:00.757Z,34.85
2022-08-17T22:48:05.274Z,33.42
2022-08-17T22:53:34.628Z,31.98
2022-08-17T22:59:01.798Z,28.20
2022-08-17T23:04:07.599Z,31.17
2022-08-17T23:09:09.844Z,34.00
2022-08-17T23:14:13.753Z,32.53
2022-08-17T23:19:19.216Z,33.72
2022-08-17T23:24:23.972Z,30.60
2022-08-17T23:29:29.635Z,35.50
2022-08-17T23:34:31.857Z,30.60
2022-08-17T23:39:34.688Z,31.47
2022-08-17T23:44:38.259Z,31.13
2022-08-17T23:49:41.346Z,32.25
2022-08-17T23:54:46.671Z,36.75
2022-08-17T23:59:49.333Z,33.63
